sensor_id;sensor_type;location;lat;lon;timestamp;temperature;humidity
20566;DHT22;10441;50.884;12.064;2022-09-17T00:02:30;10.30;99.90
20566;DHT22;10441;50.884;12.064;2022-09-17T00:08:07;10.40;99.90
20566;DHT22;10441;50.884;12.064;2022-09-17T00:10:36;10.40;99.90
20566;DHT22;10441;50.884;12.064;2022-09-17T00:13:04;10.40;99.90
20566;DHT22;10441;50.884;12.064;2022-09-17T00:15:40;10.50;99.90
20566;DHT22;10441;50.884;12.064;2022-09-17T00:18:07;10.50;99.90
20566;DHT22;10441;50.884;12.064;2022-09-17T00:20:36;10.60;99.90
20566;DHT22;10441;50.884;12.064;2022-09-17T00:23:03;10.60;99.90
20566;DHT22;10441;50.884;12.064;2022-09-17T00:25:30;10.60;99.90
20566;DHT22;10441;50.884;12.064;2022-09-17T00:31:06;10.60;99.90
20566;DHT22;10441;50.884;12.064;2022-09-17T00:33:34;10.70;99.90
20566;DHT22;10441;50.884;12.064;2022-09-17T00:36:03;10.70;99.90
20566;DHT22;10441;50.884;12.064;2022-09-17T00:38:31;10.70;99.90
20566;DHT22;10441;50.884;12.064;2022-09-17T00:41:10;10.70;99.90
20566;DHT22;10441;50.884;12.064;2022-09-17T00:43:39;10.80;99.90
20566;DHT22;10441;50.884;12.064;2022-09-17T00:46:14;10.80;99.90
20566;DHT22;10441;50.884;12.064;2022-09-17T00:49:09;10.80;99.90
20566;DHT22;10441;50.884;12.064;2022-09-17T00:51:38;10.90;99.90
20566;DHT22;10441;50.884;12.064;2022-09-17T00:54:20;10.90;99.90
20566;DHT22;10441;50.884;12.064;2022-09-17T01:00:07;10.90;99.90
20566;DHT22;10441;50.884;12.064;2022-09-17T01:02:36;10.90;99.90
20566;DHT22;10441;50.884;12.064;2022-09-17T01:05:05;10.90;99.90
20566;DHT22;10441;50.884;12.064;2022-09-17T01:10:27;10.90;99.90
20566;DHT22;10441;50.884;12.064;2022-09-17T01:13:10;10.90;99.90
20566;DHT22;10441;50.884;12.064;2022-09-17T01:18:42;10.90;99.90
20566;DHT22;10441;50.884;12.064;2022-09-17T01:32:59;10.90;99.90
20566;DHT22;10441;50.884;12.064;2022-09-17T01:35:31;10.90;99.90
20566;DHT22;10441;50.884;12.064;2022-09-17T01:38:08;10.90;99.90
20566;DHT22;10441;50.884;12.064;2022-09-17T01:40:38;11.00;99.90
20566;DHT22;10441;50.884;12.064;2022-09-17T01:43:07;11.00;99.90
20566;DHT22;10441;50.884;12.064;2022-09-17T01:45:38;10.90;99.90
20566;DHT22;10441;50.884;12.064;2022-09-17T01:48:28;11.00;99.90
20566;DHT22;10441;50.884;12.064;2022-09-17T01:50:58;11.00;99.90
20566;DHT22;10441;50.884;12.064;2022-09-17T01:53:33;10.80;99.90
20566;DHT22;10441;50.884;12.064;2022-09-17T01:56:05;10.70;99.90
20566;DHT22;10441;50.884;12.064;2022-09-17T01:58:35;10.50;1.00
20566;DHT22;10441;50.884;12.064;2022-09-17T02:01:03;10.60;1.00
20566;DHT22;10441;50.884;12.064;2022-09-17T02:03:51;10.60;1.00
20566;DHT22;10441;50.884;12.064;2022-09-17T02:09:17;10.50;1.00
20566;DHT22;10441;50.884;12.064;2022-09-17T02:11:45;10.40;1.00
20566;DHT22;10441;50.884;12.064;2022-09-17T02:14:14;10.50;1.00
20566;DHT22;10441;50.884;12.064;2022-09-17T02:16:44;10.50;1.00
20566;DHT22;10441;50.884;12.064;2022-09-17T02:19:17;10.50;1.00
20566;DHT22;10441;50.884;12.064;2022-09-17T02:21:44;10.60;1.00
20566;DHT22;10441;50.884;12.064;2022-09-17T02:24:16;10.60;1.00
20566;DHT22;10441;50.884;12.064;2022-09-17T02:26:47;10.60;1.00
20566;DHT22;10441;50.884;12.064;2022-09-17T02:29:19;10.60;1.00
20566;DHT22;10441;50.884;12.064;2022-09-17T02:31:49;10.60;1.00
20566;DHT22;10441;50.884;12.064;2022-09-17T02:34:17;10.70;1.00
20566;DHT22;10441;50.884;12.064;2022-09-17T02:36:44;10.70;1.00
20566;DHT22;10441;50.884;12.064;2022-09-17T02:39:11;10.70;1.00
20566;DHT22;10441;50.884;12.064;2022-09-17T02:41:41;10.70;1.00
20566;DHT22;10441;50.884;12.064;2022-09-17T02:44:16;10.70;1.00
20566;DHT22;10441;50.884;12.064;2022-09-17T02:46:52;10.70;1.00
20566;DHT22;10441;50.884;12.064;2022-09-17T02:49:30;10.70;1.00
20566;DHT22;10441;50.884;12.064;2022-09-17T02:52:02;10.70;1.00
20566;DHT22;10441;50.884;12.064;2022-09-17T02:54:33;10.70;1.00
20566;DHT22;10441;50.884;12.064;2022-09-17T02:57:06;10.80;1.00
20566;DHT22;10441;50.884;12.064;2022-09-17T02:59:36;10.70;1.00
20566;DHT22;10441;50.884;12.064;2022-09-17T03:02:08;10.70;1.00
20566;DHT22;10441;50.884;12.064;2022-09-17T10:50:57;13.70;99.90
20566;DHT22;10441;50.884;12.064;2022-09-17T10:53:26;13.90;99.90
20566;DHT22;10441;50.884;12.064;2022-09-17T10:55:54;13.50;99.90
20566;DHT22;10441;50.884;12.064;2022-09-17T10:58:23;13.70;99.90
20566;DHT22;10441;50.884;12.064;2022-09-17T11:00:58;13.60;99.90
20566;DHT22;10441;50.884;12.064;2022-09-17T11:03:44;13.40;99.90
20566;DHT22;10441;50.884;12.064;2022-09-17T11:06:18;13.50;99.90
20566;DHT22;10441;50.884;12.064;2022-09-17T11:08:48;13.90;99.90
20566;DHT22;10441;50.884;12.064;2022-09-17T11:11:26;14.60;99.90
20566;DHT22;10441;50.884;12.064;2022-09-17T11:14:00;15.20;99.90
20566;DHT22;10441;50.884;12.064;2022-09-17T11:16:32;15.30;99.90
20566;DHT22;10441;50.884;12.064;2022-09-17T11:19:03;16.20;99.90
20566;DHT22;10441;50.884;12.064;2022-09-17T11:21:40;15.90;99.90
20566;DHT22;10441;50.884;12.064;2022-09-17T11:24:25;15.20;99.90
20566;DHT22;10441;50.884;12.064;2022-09-17T11:26:56;15.00;99.90
20566;DHT22;10441;50.884;12.064;2022-09-17T11:29:34;14.40;99.90
20566;DHT22;10441;50.884;12.064;2022-09-17T11:32:06;14.10;99.90
20566;DHT22;10441;50.884;12.064;2022-09-17T11:34:36;14.00;99.90
20566;DHT22;10441;50.884;12.064;2022-09-17T11:37:08;13.90;99.90
20566;DHT22;10441;50.884;12.064;2022-09-17T11:39:38;14.70;99.90
20566;DHT22;10441;50.884;12.064;2022-09-17T11:42:09;14.80;99.90
20566;DHT22;10441;50.884;12.064;2022-09-17T11:44:39;14.60;99.90
20566;DHT22;10441;50.884;12.064;2022-09-17T11:47:09;15.50;99.90
20566;DHT22;10441;50.884;12.064;2022-09-17T11:49:41;15.60;99.90
20566;DHT22;10441;50.884;12.064;2022-09-17T11:52:13;15.80;99.90
20566;DHT22;10441;50.884;12.064;2022-09-17T11:54:45;15.60;99.90
20566;DHT22;10441;50.884;12.064;2022-09-17T11:57:15;16.20;99.90
20566;DHT22;10441;50.884;12.064;2022-09-17T11:59:43;16.50;99.90
20566;DHT22;10441;50.884;12.064;2022-09-17T12:02:14;16.30;99.90
20566;DHT22;10441;50.884;12.064;2022-09-17T12:04:43;15.90;99.90
20566;DHT22;10441;50.884;12.064;2022-09-17T12:07:20;15.70;99.90
20566;DHT22;10441;50.884;12.064;2022-09-17T12:09:48;16.20;99.90
20566;DHT22;10441;50.884;12.064;2022-09-17T12:12:17;15.90;99.90
20566;DHT22;10441;50.884;12.064;2022-09-17T12:14:45;16.40;99.90
20566;DHT22;10441;50.884;12.064;2022-09-17T12:17:16;16.10;99.90
20566;DHT22;10441;50.884;12.064;2022-09-17T12:19:45;15.50;99.90
20566;DHT22;10441;50.884;12.064;2022-09-17T12:22:14;14.70;99.90
20566;DHT22;10441;50.884;12.064;2022-09-17T12:24:44;14.40;99.90
20566;DHT22;10441;50.884;12.064;2022-09-17T12:27:14;14.90;99.90
20566;DHT22;10441;50.884;12.064;2022-09-17T12:29:47;14.80;99.90
20566;DHT22;10441;50.884;12.064;2022-09-17T12:32:21;15.10;99.90
20566;DHT22;10441;50.884;12.064;2022-09-17T12:34:51;14.90;99.90
20566;DHT22;10441;50.884;12.064;2022-09-17T12:37:22;15.00;99.90
20566;DHT22;10441;50.884;12.064;2022-09-17T12:40:00;15.90;99.90
20566;DHT22;10441;50.884;12.064;2022-09-17T12:45:26;16.60;99.90
20566;DHT22;10441;50.884;12.064;2022-09-17T12:50:46;15.60;99.90
20566;DHT22;10441;50.884;12.064;2022-09-17T12:53:17;16.10;99.90
20566;DHT22;10441;50.884;12.064;2022-09-17T12:55:49;16.20;99.90
20566;DHT22;10441;50.884;12.064;2022-09-17T12:58:24;15.60;99.90
20566;DHT22;10441;50.884;12.064;2022-09-17T13:00:57;15.90;99.90
20566;DHT22;10441;50.884;12.064;2022-09-17T13:03:26;16.00;99.90
20566;DHT22;10441;50.884;12.064;2022-09-17T13:05:59;16.70;99.90
20566;DHT22;10441;50.884;12.064;2022-09-17T13:11:15;17.00;99.90
20566;DHT22;10441;50.884;12.064;2022-09-17T13:13:47;17.30;99.90
20566;DHT22;10441;50.884;12.064;2022-09-17T13:16:16;16.30;99.90
20566;DHT22;10441;50.884;12.064;2022-09-17T13:18:46;15.70;99.90
20566;DHT22;10441;50.884;12.064;2022-09-17T13:21:15;15.50;99.90
20566;DHT22;10441;50.884;12.064;2022-09-17T13:23:44;16.60;99.90
20566;DHT22;10441;50.884;12.064;2022-09-17T13:26:15;15.40;99.90
20566;DHT22;10441;50.884;12.064;2022-09-17T13:28:45;15.60;99.90
20566;DHT22;10441;50.884;12.064;2022-09-17T13:31:12;15.20;99.90
20566;DHT22;10441;50.884;12.064;2022-09-17T13:33:48;14.00;99.90
20566;DHT22;10441;50.884;12.064;2022-09-17T13:39:01;14.80;99.90
20566;DHT22;10441;50.884;12.064;2022-09-17T13:41:33;15.70;99.90
20566;DHT22;10441;50.884;12.064;2022-09-17T13:44:01;15.40;99.90
20566;DHT22;10441;50.884;12.064;2022-09-17T13:46:29;16.00;99.90
20566;DHT22;10441;50.884;12.064;2022-09-17T13:48:58;14.70;99.90
20566;DHT22;10441;50.884;12.064;2022-09-17T13:51:45;15.00;99.90
20566;DHT22;10441;50.884;12.064;2022-09-17T13:54:14;15.60;99.90
20566;DHT22;10441;50.884;12.064;2022-09-17T13:56:44;16.40;99.90
20566;DHT22;10441;50.884;12.064;2022-09-17T13:59:12;16.50;99.90
20566;DHT22;10441;50.884;12.064;2022-09-17T14:01:57;16.90;99.90
20566;DHT22;10441;50.884;12.064;2022-09-17T14:04:44;16.20;99.90
20566;DHT22;10441;50.884;12.064;2022-09-17T14:10:00;18.00;99.90
20566;DHT22;10441;50.884;12.064;2022-09-17T14:17:57;15.10;99.90
20566;DHT22;10441;50.884;12.064;2022-09-17T14:20:24;16.00;99.90
20566;DHT22;10441;50.884;12.064;2022-09-17T14:22:55;17.20;99.90
20566;DHT22;10441;50.884;12.064;2022-09-17T14:25:24;18.30;99.90
20566;DHT22;10441;50.884;12.064;2022-09-17T14:27:54;17.40;99.90
20566;DHT22;10441;50.884;12.064;2022-09-17T14:30:23;17.20;99.90
20566;DHT22;10441;50.884;12.064;2022-09-17T14:32:54;17.20;99.90
20566;DHT22;10441;50.884;12.064;2022-09-17T14:35:27;17.00;99.90
20566;DHT22;10441;50.884;12.064;2022-09-17T14:37:56;17.40;99.90
20566;DHT22;10441;50.884;12.064;2022-09-17T14:40:24;17.50;99.90
20566;DHT22;10441;50.884;12.064;2022-09-17T14:42:52;17.90;99.90
20566;DHT22;10441;50.884;12.064;2022-09-17T14:45:22;17.00;99.90
20566;DHT22;10441;50.884;12.064;2022-09-17T14:50:33;15.90;99.90
20566;DHT22;10441;50.884;12.064;2022-09-17T14:53:06;14.90;99.90
20566;DHT22;10441;50.884;12.064;2022-09-17T14:55:32;14.50;99.90
20566;DHT22;10441;50.884;12.064;2022-09-17T14:57:59;14.50;99.90
20566;DHT22;10441;50.884;12.064;2022-09-17T15:00:27;14.20;99.90
20566;DHT22;10441;50.884;12.064;2022-09-17T15:02:57;14.00;99.90
20566;DHT22;10441;50.884;12.064;2022-09-17T15:05:25;14.00;99.90
20566;DHT22;10441;50.884;12.064;2022-09-17T15:10:36;14.10;99.90
20566;DHT22;10441;50.884;12.064;2022-09-17T15:13:04;14.10;99.90
20566;DHT22;10441;50.884;12.064;2022-09-17T15:15:39;14.10;99.90
20566;DHT22;10441;50.884;12.064;2022-09-17T15:18:05;14.10;99.90
20566;DHT22;10441;50.884;12.064;2022-09-17T15:20:33;13.90;99.90
20566;DHT22;10441;50.884;12.064;2022-09-17T15:23:06;13.80;99.90
20566;DHT22;10441;50.884;12.064;2022-09-17T15:25:49;13.80;99.90
20566;DHT22;10441;50.884;12.064;2022-09-17T15:28:21;13.70;99.90
20566;DHT22;10441;50.884;12.064;2022-09-17T15:30:49;13.70;99.90
20566;DHT22;10441;50.884;12.064;2022-09-17T15:33:16;13.10;99.90
20566;DHT22;10441;50.884;12.064;2022-09-17T15:35:57;12.80;99.90
20566;DHT22;10441;50.884;12.064;2022-09-17T15:40:57;11.10;99.90
20566;DHT22;10441;50.884;12.064;2022-09-17T15:43:37;11.10;99.90
20566;DHT22;10441;50.884;12.064;2022-09-17T15:46:18;11.80;99.90
20566;DHT22;10441;50.884;12.064;2022-09-17T15:48:47;11.90;99.90
20566;DHT22;10441;50.884;12.064;2022-09-17T15:51:19;11.80;99.90
20566;DHT22;10441;50.884;12.064;2022-09-17T15:53:49;11.20;99.90
20566;DHT22;10441;50.884;12.064;2022-09-17T15:56:18;9.40;99.90
20566;DHT22;10441;50.884;12.064;2022-09-17T15:58:50;9.30;99.90
20566;DHT22;10441;50.884;12.064;2022-09-17T16:06:50;9.30;99.90
20566;DHT22;10441;50.884;12.064;2022-09-17T16:12:05;9.70;99.90
20566;DHT22;10441;50.884;12.064;2022-09-17T16:14:33;10.10;99.90
20566;DHT22;10441;50.884;12.064;2022-09-17T16:19:58;10.00;1.00
20566;DHT22;10441;50.884;12.064;2022-09-17T16:22:25;9.90;1.00
20566;DHT22;10441;50.884;12.064;2022-09-17T16:24:53;10.10;99.90
20566;DHT22;10441;50.884;12.064;2022-09-17T16:27:23;10.00;99.90
20566;DHT22;10441;50.884;12.064;2022-09-17T16:29:57;9.90;1.00
20566;DHT22;10441;50.884;12.064;2022-09-17T16:32:26;9.60;1.00
20566;DHT22;10441;50.884;12.064;2022-09-17T16:34:52;9.50;1.00
20566;DHT22;10441;50.884;12.064;2022-09-17T16:37:19;9.60;1.00
20566;DHT22;10441;50.884;12.064;2022-09-17T16:39:46;9.50;1.00
20566;DHT22;10441;50.884;12.064;2022-09-17T16:42:13;9.40;99.90
20566;DHT22;10441;50.884;12.064;2022-09-17T16:44:41;9.30;1.00
20566;DHT22;10441;50.884;12.064;2022-09-17T16:47:08;9.40;99.90
20566;DHT22;10441;50.884;12.064;2022-09-17T16:49:35;9.40;1.00
20566;DHT22;10441;50.884;12.064;2022-09-17T16:52:02;9.60;99.90
20566;DHT22;10441;50.884;12.064;2022-09-17T16:54:28;9.40;99.90
20566;DHT22;10441;50.884;12.064;2022-09-17T16:56:55;9.40;99.90
20566;DHT22;10441;50.884;12.064;2022-09-17T16:59:22;9.40;99.90
20566;DHT22;10441;50.884;12.064;2022-09-17T17:01:50;9.40;28.60
20566;DHT22;10441;50.884;12.064;2022-09-17T17:04:17;9.40;63.90
20566;DHT22;10441;50.884;12.064;2022-09-17T17:06:45;9.30;1.00
20566;DHT22;10441;50.884;12.064;2022-09-17T17:09:12;9.20;1.00
20566;DHT22;10441;50.884;12.064;2022-09-17T17:11:39;9.10;1.00
20566;DHT22;10441;50.884;12.064;2022-09-17T17:14:06;9.10;1.00
20566;DHT22;10441;50.884;12.064;2022-09-17T17:16:32;9.10;1.00
20566;DHT22;10441;50.884;12.064;2022-09-17T17:19:01;9.10;99.90
20566;DHT22;10441;50.884;12.064;2022-09-17T17:21:28;9.00;99.90
20566;DHT22;10441;50.884;12.064;2022-09-17T17:23:55;9.10;99.90
20566;DHT22;10441;50.884;12.064;2022-09-17T17:26:21;9.10;99.90
20566;DHT22;10441;50.884;12.064;2022-09-17T17:28:48;9.00;1.00
20566;DHT22;10441;50.884;12.064;2022-09-17T17:31:15;9.00;99.90
20566;DHT22;10441;50.884;12.064;2022-09-17T17:33:42;9.00;93.00
20566;DHT22;10441;50.884;12.064;2022-09-17T17:36:10;8.90;1.00
20566;DHT22;10441;50.884;12.064;2022-09-17T17:38:38;8.90;1.00
20566;DHT22;10441;50.884;12.064;2022-09-17T17:41:06;8.90;1.00
20566;DHT22;10441;50.884;12.064;2022-09-17T17:43:33;8.70;1.00
20566;DHT22;10441;50.884;12.064;2022-09-17T17:46:00;8.80;93.90
20566;DHT22;10441;50.884;12.064;2022-09-17T17:48:27;8.60;1.00
20566;DHT22;10441;50.884;12.064;2022-09-17T17:50:54;8.60;99.90
20566;DHT22;10441;50.884;12.064;2022-09-17T17:53:27;8.50;1.00
20566;DHT22;10441;50.884;12.064;2022-09-17T17:55:55;8.50;1.00
20566;DHT22;10441;50.884;12.064;2022-09-17T17:58:23;8.40;99.90
20566;DHT22;10441;50.884;12.064;2022-09-17T18:00:50;8.40;99.90
20566;DHT22;10441;50.884;12.064;2022-09-17T18:03:17;8.30;99.90
20566;DHT22;10441;50.884;12.064;2022-09-17T18:05:44;8.30;99.90
20566;DHT22;10441;50.884;12.064;2022-09-17T18:08:11;8.30;1.00
20566;DHT22;10441;50.884;12.064;2022-09-17T18:10:39;8.40;1.00
20566;DHT22;10441;50.884;12.064;2022-09-17T18:13:06;8.40;1.00
20566;DHT22;10441;50.884;12.064;2022-09-17T18:15:33;8.40;1.00
20566;DHT22;10441;50.884;12.064;2022-09-17T18:18:00;8.40;1.00
20566;DHT22;10441;50.884;12.064;2022-09-17T18:20:26;8.60;1.00
20566;DHT22;10441;50.884;12.064;2022-09-17T18:22:53;8.80;99.90
20566;DHT22;10441;50.884;12.064;2022-09-17T18:25:20;9.00;99.90
20566;DHT22;10441;50.884;12.064;2022-09-17T18:27:48;9.30;1.00
20566;DHT22;10441;50.884;12.064;2022-09-17T18:30:15;9.70;99.90
20566;DHT22;10441;50.884;12.064;2022-09-17T18:32:42;9.90;1.00
20566;DHT22;10441;50.884;12.064;2022-09-17T18:35:12;9.90;1.00
20566;DHT22;10441;50.884;12.064;2022-09-17T18:37:39;10.10;1.00
20566;DHT22;10441;50.884;12.064;2022-09-17T18:40:06;9.90;1.00
20566;DHT22;10441;50.884;12.064;2022-09-17T18:42:33;9.80;1.00
20566;DHT22;10441;50.884;12.064;2022-09-17T18:45:01;9.90;1.00
20566;DHT22;10441;50.884;12.064;2022-09-17T18:47:28;10.00;1.00
20566;DHT22;10441;50.884;12.064;2022-09-17T18:49:55;9.90;1.00
20566;DHT22;10441;50.884;12.064;2022-09-17T18:52:22;9.90;1.00
20566;DHT22;10441;50.884;12.064;2022-09-17T18:54:48;9.90;1.00
20566;DHT22;10441;50.884;12.064;2022-09-17T18:57:15;9.70;1.00
20566;DHT22;10441;50.884;12.064;2022-09-17T18:59:43;9.60;1.00
20566;DHT22;10441;50.884;12.064;2022-09-17T19:02:12;9.90;1.00
20566;DHT22;10441;50.884;12.064;2022-09-17T19:04:38;9.90;1.00
20566;DHT22;10441;50.884;12.064;2022-09-17T19:07:07;9.80;1.00
20566;DHT22;10441;50.884;12.064;2022-09-17T19:09:34;9.80;1.00
20566;DHT22;10441;50.884;12.064;2022-09-17T19:12:01;9.90;1.00
20566;DHT22;10441;50.884;12.064;2022-09-17T19:14:28;9.80;1.00
20566;DHT22;10441;50.884;12.064;2022-09-17T19:16:54;9.80;1.00
20566;DHT22;10441;50.884;12.064;2022-09-17T19:19:23;9.90;1.00
20566;DHT22;10441;50.884;12.064;2022-09-17T19:21:50;9.80;1.00
20566;DHT22;10441;50.884;12.064;2022-09-17T19:24:16;9.80;1.00
20566;DHT22;10441;50.884;12.064;2022-09-17T19:26:43;9.70;1.00
20566;DHT22;10441;50.884;12.064;2022-09-17T19:29:10;9.70;1.00
20566;DHT22;10441;50.884;12.064;2022-09-17T19:31:37;9.60;1.00
20566;DHT22;10441;50.884;12.064;2022-09-17T19:34:04;9.60;1.00
20566;DHT22;10441;50.884;12.064;2022-09-17T19:36:33;9.60;1.00
20566;DHT22;10441;50.884;12.064;2022-09-17T19:39:00;9.60;1.00
20566;DHT22;10441;50.884;12.064;2022-09-17T19:41:27;9.50;1.00
20566;DHT22;10441;50.884;12.064;2022-09-17T19:43:56;9.50;1.00
20566;DHT22;10441;50.884;12.064;2022-09-17T19:46:24;9.60;1.00
20566;DHT22;10441;50.884;12.064;2022-09-17T19:48:51;9.50;1.00
20566;DHT22;10441;50.884;12.064;2022-09-17T19:51:18;9.60;1.00
20566;DHT22;10441;50.884;12.064;2022-09-17T19:53:47;9.50;1.00
20566;DHT22;10441;50.884;12.064;2022-09-17T19:56:14;9.50;1.00
20566;DHT22;10441;50.884;12.064;2022-09-17T19:58:41;9.50;1.00
20566;DHT22;10441;50.884;12.064;2022-09-17T20:01:10;9.50;1.00
20566;DHT22;10441;50.884;12.064;2022-09-17T20:03:37;9.50;1.00
20566;DHT22;10441;50.884;12.064;2022-09-17T20:06:05;9.60;1.00
20566;DHT22;10441;50.884;12.064;2022-09-17T20:08:32;9.60;1.00
20566;DHT22;10441;50.884;12.064;2022-09-17T20:11:04;9.60;1.00
20566;DHT22;10441;50.884;12.064;2022-09-17T20:13:32;9.60;1.00
20566;DHT22;10441;50.884;12.064;2022-09-17T20:16:01;9.70;1.00
20566;DHT22;10441;50.884;12.064;2022-09-17T20:18:28;9.70;1.00
20566;DHT22;10441;50.884;12.064;2022-09-17T20:20:55;9.70;1.00
20566;DHT22;10441;50.884;12.064;2022-09-17T20:23:23;9.70;1.00
20566;DHT22;10441;50.884;12.064;2022-09-17T20:25:50;9.70;1.00
20566;DHT22;10441;50.884;12.064;2022-09-17T20:28:18;9.70;1.00
20566;DHT22;10441;50.884;12.064;2022-09-17T20:30:45;9.70;1.00
20566;DHT22;10441;50.884;12.064;2022-09-17T20:33:12;9.80;1.00
20566;DHT22;10441;50.884;12.064;2022-09-17T20:35:39;9.80;1.00
20566;DHT22;10441;50.884;12.064;2022-09-17T20:38:06;9.80;1.00
20566;DHT22;10441;50.884;12.064;2022-09-17T20:40:33;9.80;1.00
20566;DHT22;10441;50.884;12.064;2022-09-17T20:43:00;9.90;1.00
20566;DHT22;10441;50.884;12.064;2022-09-17T20:45:28;9.80;1.00
20566;DHT22;10441;50.884;12.064;2022-09-17T20:47:55;9.90;1.00
20566;DHT22;10441;50.884;12.064;2022-09-17T20:50:22;10.00;1.00
20566;DHT22;10441;50.884;12.064;2022-09-17T20:52:49;10.00;1.00
20566;DHT22;10441;50.884;12.064;2022-09-17T20:55:16;9.90;1.00
20566;DHT22;10441;50.884;12.064;2022-09-17T20:57:43;9.90;1.00
20566;DHT22;10441;50.884;12.064;2022-09-17T21:00:10;9.90;1.00
20566;DHT22;10441;50.884;12.064;2022-09-17T21:02:45;9.80;1.00
20566;DHT22;10441;50.884;12.064;2022-09-17T21:05:15;9.90;1.00
20566;DHT22;10441;50.884;12.064;2022-09-17T21:07:42;9.90;1.00
20566;DHT22;10441;50.884;12.064;2022-09-17T21:10:09;9.90;1.00
20566;DHT22;10441;50.884;12.064;2022-09-17T21:12:37;9.30;1.00
20566;DHT22;10441;50.884;12.064;2022-09-17T21:15:04;9.00;1.00
20566;DHT22;10441;50.884;12.064;2022-09-17T21:17:31;8.90;99.90
20566;DHT22;10441;50.884;12.064;2022-09-17T21:19:59;8.90;99.90
20566;DHT22;10441;50.884;12.064;2022-09-17T21:22:26;8.90;99.90
20566;DHT22;10441;50.884;12.064;2022-09-17T21:24:53;8.90;1.00
20566;DHT22;10441;50.884;12.064;2022-09-17T21:27:20;8.80;1.00
20566;DHT22;10441;50.884;12.064;2022-09-17T21:29:47;8.90;1.00
20566;DHT22;10441;50.884;12.064;2022-09-17T21:32:13;9.00;1.00
20566;DHT22;10441;50.884;12.064;2022-09-17T21:34:41;9.20;1.00
20566;DHT22;10441;50.884;12.064;2022-09-17T21:37:10;9.20;1.00
20566;DHT22;10441;50.884;12.064;2022-09-17T21:39:36;8.90;99.90
20566;DHT22;10441;50.884;12.064;2022-09-17T21:42:03;8.80;99.90
20566;DHT22;10441;50.884;12.064;2022-09-17T21:44:30;9.10;1.00
20566;DHT22;10441;50.884;12.064;2022-09-17T21:46:57;8.90;1.00
20566;DHT22;10441;50.884;12.064;2022-09-17T21:49:24;9.20;99.90
20566;DHT22;10441;50.884;12.064;2022-09-17T21:51:51;9.10;99.90
20566;DHT22;10441;50.884;12.064;2022-09-17T21:54:19;9.10;1.00
20566;DHT22;10441;50.884;12.064;2022-09-17T21:56:45;9.10;99.90
20566;DHT22;10441;50.884;12.064;2022-09-17T21:59:13;9.10;1.00
20566;DHT22;10441;50.884;12.064;2022-09-17T22:01:41;8.90;99.90
20566;DHT22;10441;50.884;12.064;2022-09-17T22:04:11;8.90;1.00
20566;DHT22;10441;50.884;12.064;2022-09-17T22:06:38;8.70;78.90
20566;DHT22;10441;50.884;12.064;2022-09-17T22:09:06;8.70;99.90
20566;DHT22;10441;50.884;12.064;2022-09-17T22:11:35;8.70;1.00
20566;DHT22;10441;50.884;12.064;2022-09-17T22:14:03;8.60;1.00
20566;DHT22;10441;50.884;12.064;2022-09-17T22:16:34;8.60;99.90
20566;DHT22;10441;50.884;12.064;2022-09-17T22:19:01;8.50;1.00
20566;DHT22;10441;50.884;12.064;2022-09-17T22:21:29;8.60;99.90
20566;DHT22;10441;50.884;12.064;2022-09-17T22:23:58;8.50;1.00
20566;DHT22;10441;50.884;12.064;2022-09-17T22:26:25;8.60;1.00
20566;DHT22;10441;50.884;12.064;2022-09-17T22:28:55;8.50;99.90
20566;DHT22;10441;50.884;12.064;2022-09-17T22:31:22;8.40;1.00
20566;DHT22;10441;50.884;12.064;2022-09-17T22:33:49;8.50;99.90
20566;DHT22;10441;50.884;12.064;2022-09-17T22:36:16;8.40;99.90
20566;DHT22;10441;50.884;12.064;2022-09-17T22:38:46;8.40;99.90
20566;DHT22;10441;50.884;12.064;2022-09-17T22:41:14;8.40;99.90
20566;DHT22;10441;50.884;12.064;2022-09-17T22:43:41;8.50;99.90
20566;DHT22;10441;50.884;12.064;2022-09-17T22:46:11;8.50;99.90
20566;DHT22;10441;50.884;12.064;2022-09-17T22:48:38;8.50;1.00
20566;DHT22;10441;50.884;12.064;2022-09-17T22:51:05;8.40;1.00
20566;DHT22;10441;50.884;12.064;2022-09-17T22:53:32;8.40;99.90
20566;DHT22;10441;50.884;12.064;2022-09-17T22:55:59;8.50;1.00
20566;DHT22;10441;50.884;12.064;2022-09-17T22:58:29;8.40;1.00
20566;DHT22;10441;50.884;12.064;2022-09-17T23:01:01;8.50;99.90
20566;DHT22;10441;50.884;12.064;2022-09-17T23:03:30;8.40;1.00
20566;DHT22;10441;50.884;12.064;2022-09-17T23:05:57;8.50;1.00
20566;DHT22;10441;50.884;12.064;2022-09-17T23:08:25;8.40;1.00
20566;DHT22;10441;50.884;12.064;2022-09-17T23:10:51;8.40;1.00
20566;DHT22;10441;50.884;12.064;2022-09-17T23:13:19;8.40;1.00
20566;DHT22;10441;50.884;12.064;2022-09-17T23:15:45;8.50;1.00
20566;DHT22;10441;50.884;12.064;2022-09-17T23:18:12;8.50;99.90
20566;DHT22;10441;50.884;12.064;2022-09-17T23:20:41;8.40;99.90
20566;DHT22;10441;50.884;12.064;2022-09-17T23:23:07;8.50;51.30
20566;DHT22;10441;50.884;12.064;2022-09-17T23:25:34;8.50;1.00
20566;DHT22;10441;50.884;12.064;2022-09-17T23:28:01;8.40;1.00
20566;DHT22;10441;50.884;12.064;2022-09-17T23:30:28;8.40;27.90
20566;DHT22;10441;50.884;12.064;2022-09-17T23:32:55;8.50;99.90
20566;DHT22;10441;50.884;12.064;2022-09-17T23:35:23;8.40;1.00
20566;DHT22;10441;50.884;12.064;2022-09-17T23:37:51;8.40;99.90
20566;DHT22;10441;50.884;12.064;2022-09-17T23:40:18;8.40;1.00
20566;DHT22;10441;50.884;12.064;2022-09-17T23:42:46;8.40;1.00
20566;DHT22;10441;50.884;12.064;2022-09-17T23:45:13;8.40;99.90
20566;DHT22;10441;50.884;12.064;2022-09-17T23:47:40;8.40;1.00
20566;DHT22;10441;50.884;12.064;2022-09-17T23:50:07;8.40;1.00
20566;DHT22;10441;50.884;12.064;2022-09-17T23:52:33;8.30;1.00
20566;DHT22;10441;50.884;12.064;2022-09-17T23:55:02;8.40;1.00
20566;DHT22;10441;50.884;12.064;2022-09-17T23:57:29;8.40;1.00
20566;DHT22;10441;50.884;12.064;2022-09-17T23:59:56;8.40;99.90
